メインページ
METAR-TAF:

METAR-TAF

空港 :

ティミンズ, オンタリオ州, カナダ

緯度: 48-34N, 経度: 081-22W, 海抜: 295m

現時点の気象観測

当レポートは39分前の05:00(UTC)に作成
南/南東の風 2kt
気温 -1°C
湿度 100%
気圧 1017 hPa
視程: 24.1km
晴天

METAR: CYTS 040500Z 15002KT 15SM SKC M01/M01 A3004 RMK SLP188

時間: 01:39 (05:39 UTC)

予報

当レポートは4時間0分前の01:39(UTC)に作成
予報は04日の 02時(UTC)から 04日の 14時(UTC)まで有効
変向風 3kt
視程: 10km
高度5000ftの雲はほとんどない
04日の 02時(UTC)から 04日の 06時(UTC)まで一時的に
高度5000ftの千切れ雲あり
04日の 0600時(UTC)から
変向風 3kt
視程: 10km
高度3000ftの雲は散在している
確率 30%
04日の 06時(UTC)から 04日の 13時(UTC)まで
視程: 1.6km
04日の 1300時(UTC)から
の風 5kt
視程: 10km
高度2500ftの雲は散在している

TAF: CYTS 040139Z 0402/0414 VRB03KT P6SM FEW050 TEMPO 0402/0406 BKN050 FM040600 VRB03KT P6SM SCT030 PROB30 0406/0413 1SM BR FM041300 18005KT P6SM SCT025 RMK NXT FCST BY 040800Z

4,000以上の空港の気象観測と天気予報(METAR報とTAF報)

利用可能な観測所は地図上に黄色い丸と赤い丸で示す。

丸の上にカーソルを重ねると観測所名を参照できる。

次にクリックすると気象観測と天気予報を参照できる。

マップの切り替え:黒色「×」印の緑ボタンをクリックして拡大、「-」印の緑ボタンをクリックして縮小、緑色の三角印をクリックして隣りの地図に切り替え


METAR-TAF: